createdAt,value
2023-05-06T00:00:16.323Z,0.00
2023-05-06T00:00:35.678Z,0.00
2023-05-06T00:01:01.614Z,0.00
2023-05-06T00:01:33.391Z,0.00
2023-05-06T00:02:05.463Z,0.00
2023-05-06T00:02:34.698Z,0.00
2023-05-06T00:02:53.467Z,0.00
2023-05-06T00:03:25.531Z,0.00
2023-05-06T00:03:42.733Z,0.00
2023-05-06T00:04:13.445Z,0.00
2023-05-06T00:04:35.820Z,0.00
2023-05-06T00:05:03.512Z,0.00
2023-05-06T00:05:33.732Z,0.00
2023-05-06T00:06:06.288Z,0.00
2023-05-06T00:06:34.621Z,0.00
2023-05-06T00:06:53.442Z,0.00
2023-05-06T00:07:25.459Z,0.00
2023-05-06T00:07:42.550Z,0.00
2023-05-06T00:08:13.424Z,0.00
2023-05-06T00:08:35.107Z,0.00
2023-05-06T00:09:01.619Z,0.00
2023-05-06T00:09:33.605Z,0.00
2023-05-06T00:10:05.940Z,0.00
2023-05-06T00:10:35.135Z,0.00
2023-05-06T00:10:53.743Z,0.00
2023-05-06T00:11:25.436Z,0.00
2023-05-06T00:11:42.518Z,0.00
2023-05-06T00:12:13.451Z,0.00
2023-05-06T00:12:35.139Z,0.00
2023-05-06T00:13:01.702Z,0.00
2023-05-06T00:13:33.397Z,0.00
2023-05-06T00:14:05.458Z,0.00
2023-05-06T00:14:34.618Z,0.00
2023-05-06T00:14:53.382Z,0.00
2023-05-06T00:15:25.984Z,0.00
2023-05-06T00:15:42.558Z,0.00
2023-05-06T00:16:13.547Z,0.00
2023-05-06T00:16:35.732Z,0.00
2023-05-06T00:17:01.575Z,0.00
2023-05-06T00:17:33.522Z,0.00
2023-05-06T00:18:05.471Z,0.00
2023-05-06T00:18:34.571Z,0.00
2023-05-06T00:18:53.432Z,0.00
2023-05-06T00:19:25.472Z,0.00
2023-05-06T00:19:42.536Z,0.00
2023-05-06T00:20:13.670Z,0.00
2023-05-06T00:20:35.127Z,0.00
2023-05-06T00:21:01.636Z,0.00
2023-05-06T00:21:34.668Z,0.00
2023-05-06T00:22:05.428Z,0.00
2023-05-06T00:22:34.618Z,0.00
2023-05-06T00:22:53.387Z,0.00
2023-05-06T00:23:25.427Z,0.00
2023-05-06T00:23:42.567Z,0.00
2023-05-06T00:24:13.382Z,0.00
2023-05-06T00:24:35.780Z,0.00
2023-05-06T00:25:03.585Z,0.00
2023-05-06T00:25:34.413Z,0.00
2023-05-06T00:26:05.441Z,0.00
2023-05-06T00:26:34.602Z,0.00
2023-05-06T00:26:53.449Z,0.00
2023-05-06T00:27:25.481Z,0.00
2023-05-06T00:27:43.429Z,0.00
2023-05-06T00:28:13.404Z,0.00
2023-05-06T00:28:35.088Z,0.00
2023-05-06T00:29:01.675Z,0.00
2023-05-06T00:29:33.445Z,0.00
2023-05-06T00:30:07.707Z,0.00
2023-05-06T00:30:34.586Z,0.00
2023-05-06T00:30:54.516Z,0.00
2023-05-06T00:31:25.446Z,0.00
2023-05-06T00:31:42.578Z,0.00
2023-05-06T00:32:13.526Z,0.00
2023-05-06T00:32:35.120Z,0.00
2023-05-06T00:33:03.279Z,0.00
2023-05-06T00:33:33.375Z,0.00
2023-05-06T00:34:06.124Z,0.00
2023-05-06T00:34:34.565Z,0.00
2023-05-06T00:34:53.374Z,0.00
2023-05-06T00:35:25.745Z,0.00
2023-05-06T00:35:42.552Z,0.00
2023-05-06T00:36:13.386Z,0.00
2023-05-06T00:36:35.526Z,0.00
2023-05-06T00:37:01.626Z,0.00
2023-05-06T00:37:33.849Z,0.00
2023-05-06T00:38:05.473Z,0.00
2023-05-06T00:38:34.544Z,0.00
2023-05-06T00:38:53.399Z,0.00
2023-05-06T00:39:25.426Z,0.00
2023-05-06T00:39:42.532Z,0.00
2023-05-06T00:40:13.965Z,0.00
2023-05-06T00:40:35.639Z,0.00
2023-05-06T00:41:02.060Z,0.00
2023-05-06T00:41:33.691Z,0.00
2023-05-06T00:42:05.667Z,0.00
2023-05-06T00:42:34.824Z,0.00
2023-05-06T00:42:53.418Z,0.00
2023-05-06T00:43:25.790Z,0.00
2023-05-06T00:43:43.179Z,0.00
2023-05-06T00:44:13.679Z,0.00
2023-05-06T00:44:35.668Z,0.00
2023-05-06T00:45:04.564Z,0.00
2023-05-06T00:45:33.458Z,0.00
2023-05-06T00:46:07.699Z,0.00
2023-05-06T00:46:34.745Z,0.00
2023-05-06T00:47:10.070Z,0.00
2023-05-06T00:47:34.809Z,0.00
2023-05-06T00:47:57.660Z,0.00
2023-05-06T00:48:30.349Z,0.00
2023-05-06T00:49:02.022Z,0.00
2023-05-06T00:49:33.444Z,0.00
2023-05-06T00:50:08.391Z,0.00
2023-05-06T00:50:34.960Z,0.00
2023-05-06T00:50:58.427Z,0.00
2023-05-06T00:51:26.530Z,0.00
2023-05-06T00:51:42.965Z,0.00
2023-05-06T00:52:13.418Z,0.00
2023-05-06T00:52:35.531Z,0.00
2023-05-06T00:53:01.788Z,0.00
2023-05-06T00:53:33.454Z,0.00
2023-05-06T00:54:05.460Z,0.00
2023-05-06T00:54:34.607Z,0.00
2023-05-06T00:54:53.410Z,0.00
2023-05-06T00:55:25.796Z,0.00
2023-05-06T00:55:42.532Z,0.00
2023-05-06T00:56:13.545Z,0.00
2023-05-06T00:56:35.249Z,0.00
2023-05-06T00:57:01.738Z,0.00
2023-05-06T00:57:33.709Z,0.00
2023-05-06T00:58:05.489Z,0.00
2023-05-06T00:58:34.615Z,0.00
2023-05-06T00:58:53.466Z,0.00
2023-05-06T00:59:25.522Z,0.00
2023-05-06T00:59:43.166Z,0.00
2023-05-06T01:00:16.868Z,0.00
2023-05-06T01:00:35.194Z,0.00
2023-05-06T01:01:02.491Z,0.00
2023-05-06T01:01:34.154Z,0.00
2023-05-06T01:02:05.551Z,0.00
2023-05-06T01:02:45.832Z,0.00
2023-05-06T01:02:54.282Z,0.00
2023-05-06T01:03:25.569Z,0.00
2023-05-06T01:03:42.798Z,0.00
2023-05-06T01:04:13.481Z,0.00
2023-05-06T01:04:35.718Z,0.00
2023-05-06T01:05:03.767Z,0.00
2023-05-06T01:05:34.033Z,0.00
2023-05-06T01:06:06.941Z,0.00
2023-05-06T01:06:34.635Z,0.00
2023-05-06T01:06:53.447Z,0.00
2023-05-06T01:07:25.483Z,0.00
2023-05-06T01:07:42.580Z,0.00
2023-05-06T01:08:13.427Z,0.00
2023-05-06T01:08:35.263Z,0.00
2023-05-06T01:09:01.803Z,0.00
2023-05-06T01:09:34.192Z,0.00
2023-05-06T01:10:05.968Z,0.00
2023-05-06T01:10:35.158Z,0.00
2023-05-06T01:10:53.633Z,0.00
2023-05-06T01:11:25.445Z,0.00
2023-05-06T01:11:42.539Z,0.00
2023-05-06T01:12:13.438Z,0.00
2023-05-06T01:12:35.147Z,0.00
2023-05-06T01:13:01.829Z,0.00
2023-05-06T01:13:33.390Z,0.00
2023-05-06T01:14:05.466Z,0.00
2023-05-06T01:14:34.599Z,0.00
2023-05-06T01:14:53.421Z,0.00
2023-05-06T01:15:26.000Z,0.00
2023-05-06T01:15:42.562Z,0.00
2023-05-06T01:16:13.454Z,0.00
2023-05-06T01:16:35.133Z,0.00
2023-05-06T01:17:01.856Z,0.00
2023-05-06T01:17:33.411Z,0.00
2023-05-06T01:18:05.632Z,0.00
2023-05-06T01:18:34.611Z,0.00
2023-05-06T01:18:53.413Z,0.00
2023-05-06T01:19:25.444Z,0.00
2023-05-06T01:19:42.511Z,0.00
2023-05-06T01:20:13.829Z,0.00
2023-05-06T01:20:35.100Z,0.00
2023-05-06T01:21:01.945Z,0.00
2023-05-06T01:21:34.334Z,0.00
2023-05-06T01:22:05.473Z,0.00
2023-05-06T01:22:34.583Z,0.00
2023-05-06T01:22:53.416Z,0.00
2023-05-06T01:23:25.459Z,0.00
2023-05-06T01:23:42.544Z,0.00
2023-05-06T01:24:13.455Z,0.00
2023-05-06T01:24:36.747Z,0.00
2023-05-06T01:25:03.793Z,0.00
2023-05-06T01:25:34.269Z,0.00
2023-05-06T01:26:05.440Z,0.00
2023-05-06T01:26:34.572Z,0.00
2023-05-06T01:26:53.379Z,0.00
2023-05-06T01:27:25.466Z,0.00
2023-05-06T01:27:43.328Z,0.00
2023-05-06T01:28:13.522Z,0.00
2023-05-06T01:28:35.496Z,0.00
2023-05-06T01:29:01.829Z,0.00
2023-05-06T01:29:33.431Z,0.00
2023-05-06T01:30:07.834Z,0.00
2023-05-06T01:30:34.615Z,0.00
2023-05-06T01:30:54.796Z,0.00
2023-05-06T01:31:25.488Z,0.00
2023-05-06T01:31:42.575Z,0.00
2023-05-06T01:32:13.423Z,0.00
2023-05-06T01:32:35.500Z,0.00
2023-05-06T01:33:03.433Z,0.00
2023-05-06T01:33:33.532Z,0.00
2023-05-06T01:34:06.120Z,0.00
2023-05-06T01:34:35.089Z,0.00
2023-05-06T01:34:53.474Z,0.00
2023-05-06T01:35:25.724Z,0.00
2023-05-06T01:35:42.498Z,0.00
2023-05-06T01:36:13.398Z,0.00
2023-05-06T01:36:35.085Z,0.00
2023-05-06T01:37:01.752Z,0.00
2023-05-06T01:37:33.360Z,0.00
2023-05-06T01:38:05.402Z,0.00
2023-05-06T01:38:34.955Z,0.00
2023-05-06T01:38:53.677Z,0.00
2023-05-06T01:39:25.440Z,0.00
2023-05-06T01:39:42.520Z,0.00
2023-05-06T01:40:13.675Z,0.00
2023-05-06T01:40:35.093Z,0.00
2023-05-06T01:41:01.816Z,0.00
2023-05-06T01:41:33.380Z,0.00
2023-05-06T01:42:05.431Z,0.00
2023-05-06T01:42:35.270Z,0.00
2023-05-06T01:42:53.350Z,0.00
2023-05-06T01:43:25.444Z,0.00
2023-05-06T01:43:43.101Z,0.00
2023-05-06T01:44:13.376Z,0.00
2023-05-06T01:44:35.491Z,0.00
2023-05-06T01:45:03.967Z,0.00
2023-05-06T01:45:33.372Z,0.00
2023-05-06T01:46:07.087Z,0.00
2023-05-06T01:46:34.615Z,0.00
2023-05-06T01:46:54.214Z,0.00
2023-05-06T01:47:25.408Z,0.00
2023-05-06T01:47:42.509Z,0.00
2023-05-06T01:48:13.339Z,0.00
2023-05-06T01:48:35.068Z,0.00
2023-05-06T01:49:01.841Z,0.00
2023-05-06T01:49:33.464Z,0.00
2023-05-06T01:50:06.603Z,0.00
2023-05-06T01:50:34.560Z,0.00
2023-05-06T01:50:53.621Z,0.00
2023-05-06T01:51:25.399Z,0.00
2023-05-06T01:51:42.463Z,0.00
2023-05-06T01:52:13.377Z,0.00
2023-05-06T01:52:35.054Z,0.00
2023-05-06T01:53:01.793Z,0.00
2023-05-06T01:53:33.355Z,0.00
2023-05-06T01:54:05.389Z,0.00
2023-05-06T01:54:35.050Z,0.00
2023-05-06T01:54:53.377Z,0.00
2023-05-06T01:55:25.760Z,0.00
2023-05-06T01:55:42.615Z,0.00
2023-05-06T01:56:13.361Z,0.00
2023-05-06T01:56:35.271Z,0.00
2023-05-06T01:57:01.781Z,0.00
2023-05-06T01:57:33.369Z,0.00
2023-05-06T01:58:05.379Z,0.00
2023-05-06T01:58:34.802Z,0.00
2023-05-06T01:58:53.310Z,0.00
2023-05-06T01:59:25.379Z,0.00
2023-05-06T01:59:43.388Z,0.00
2023-05-06T02:00:16.177Z,0.00
2023-05-06T02:00:35.785Z,0.00
2023-05-06T02:01:01.899Z,0.00
2023-05-06T02:01:33.384Z,0.00
2023-05-06T02:02:05.427Z,0.00
2023-05-06T02:02:34.727Z,0.00
2023-05-06T02:02:54.320Z,0.00
2023-05-06T02:03:25.556Z,0.00
2023-05-06T02:03:42.656Z,0.00
2023-05-06T02:04:13.364Z,0.00
2023-05-06T02:04:35.096Z,0.00
2023-05-06T02:05:03.641Z,0.00
2023-05-06T02:05:33.404Z,0.00
2023-05-06T02:06:06.224Z,0.00
2023-05-06T02:06:34.576Z,0.00
2023-05-06T02:06:53.323Z,0.00
2023-05-06T02:07:25.369Z,0.00
2023-05-06T02:07:42.565Z,0.00
2023-05-06T02:08:13.381Z,0.00
2023-05-06T02:08:35.080Z,0.00
2023-05-06T02:09:01.829Z,0.00
2023-05-06T02:09:33.329Z,0.00
2023-05-06T02:10:06.193Z,0.00
2023-05-06T02:10:34.570Z,0.00
2023-05-06T02:10:53.587Z,0.00
2023-05-06T02:11:25.399Z,0.00
2023-05-06T02:11:42.536Z,0.00
2023-05-06T02:12:13.333Z,0.00
2023-05-06T02:12:35.117Z,0.00
2023-05-06T02:13:01.869Z,0.00
2023-05-06T02:13:33.409Z,0.00
2023-05-06T02:14:05.410Z,0.00
2023-05-06T02:14:35.260Z,0.00
2023-05-06T02:14:53.346Z,0.00
2023-05-06T02:15:25.857Z,0.00
2023-05-06T02:15:43.346Z,0.00
2023-05-06T02:16:13.430Z,0.00
2023-05-06T02:16:35.191Z,0.00
2023-05-06T02:17:01.807Z,0.00
2023-05-06T02:17:33.492Z,0.00
2023-05-06T02:18:05.450Z,0.00
2023-05-06T02:18:35.283Z,0.00
2023-05-06T02:18:54.116Z,0.00
2023-05-06T02:19:25.407Z,0.00
2023-05-06T02:19:42.506Z,0.00
2023-05-06T02:20:13.652Z,0.00
2023-05-06T02:20:35.043Z,0.00
2023-05-06T02:21:01.939Z,0.00
2023-05-06T02:21:33.352Z,0.00
2023-05-06T02:22:06.315Z,0.00
2023-05-06T02:22:35.056Z,0.00
2023-05-06T02:22:53.338Z,0.00
2023-05-06T02:23:25.506Z,0.00
2023-05-06T02:23:42.689Z,0.00
2023-05-06T02:24:13.398Z,0.00
2023-05-06T02:24:35.061Z,0.00
2023-05-06T02:25:03.661Z,0.00
2023-05-06T02:25:33.751Z,0.00
2023-05-06T02:26:05.375Z,0.00
2023-05-06T02:26:34.560Z,0.00
2023-05-06T02:26:53.340Z,0.00
2023-05-06T02:27:25.384Z,0.00
2023-05-06T02:27:42.509Z,0.00
2023-05-06T02:28:13.338Z,0.00
2023-05-06T02:28:35.025Z,0.00
2023-05-06T02:29:01.858Z,0.00
2023-05-06T02:29:33.370Z,0.00
2023-05-06T02:30:07.497Z,0.00
2023-05-06T02:30:34.622Z,0.00
2023-05-06T02:30:53.668Z,0.00
2023-05-06T02:31:25.408Z,0.00
2023-05-06T02:31:43.151Z,0.00
2023-05-06T02:32:13.355Z,0.00
2023-05-06T02:32:35.088Z,0.00
2023-05-06T02:33:03.391Z,0.00
2023-05-06T02:33:33.340Z,0.00
2023-05-06T02:34:05.383Z,0.00
2023-05-06T02:34:34.562Z,0.00
2023-05-06T02:34:54.095Z,0.00
2023-05-06T02:35:25.723Z,0.00
2023-05-06T02:35:42.498Z,0.00
2023-05-06T02:36:13.358Z,0.00
2023-05-06T02:36:35.040Z,0.00
2023-05-06T02:37:01.894Z,0.00
2023-05-06T02:37:33.418Z,0.00
2023-05-06T02:38:06.204Z,0.00
2023-05-06T02:38:34.581Z,0.00
2023-05-06T02:38:53.338Z,0.00
2023-05-06T02:39:25.357Z,0.00
2023-05-06T02:39:42.458Z,0.00
2023-05-06T02:40:13.628Z,0.00
2023-05-06T02:40:35.053Z,0.00
2023-05-06T02:41:02.142Z,0.00
2023-05-06T02:41:33.854Z,0.00
2023-05-06T02:42:05.350Z,0.00
2023-05-06T02:42:34.637Z,0.00
2023-05-06T02:42:53.401Z,0.00
2023-05-06T02:43:25.380Z,0.00
2023-05-06T02:43:42.635Z,0.00
2023-05-06T02:44:13.437Z,0.00
2023-05-06T02:44:35.035Z,0.00
2023-05-06T02:45:03.964Z,0.00
2023-05-06T02:45:34.053Z,0.00
2023-05-06T02:46:07.000Z,0.00
2023-05-06T02:46:34.540Z,0.00
2023-05-06T02:46:53.351Z,0.00
2023-05-06T02:47:25.390Z,0.00
2023-05-06T02:47:43.069Z,0.00
2023-05-06T02:48:13.408Z,0.00
2023-05-06T02:48:35.020Z,0.00
2023-05-06T02:49:01.778Z,0.00
2023-05-06T02:49:33.491Z,0.00
2023-05-06T02:50:06.021Z,0.00
2023-05-06T02:50:34.877Z,0.00
2023-05-06T02:50:54.304Z,0.00
2023-05-06T02:51:25.665Z,0.00
2023-05-06T02:51:42.896Z,0.00
2023-05-06T02:52:13.359Z,0.00
2023-05-06T02:52:35.024Z,0.00
2023-05-06T02:53:01.909Z,0.00
2023-05-06T02:53:33.353Z,0.00
2023-05-06T02:54:07.026Z,0.00
2023-05-06T02:54:34.561Z,0.00
2023-05-06T02:54:53.351Z,0.00
2023-05-06T02:55:25.750Z,0.00
2023-05-06T02:55:42.451Z,0.00
2023-05-06T02:56:13.362Z,0.00
2023-05-06T02:56:35.559Z,0.00
2023-05-06T02:57:01.785Z,0.00
2023-05-06T02:57:33.346Z,0.00
2023-05-06T02:58:05.349Z,0.00
2023-05-06T02:58:34.748Z,0.00
2023-05-06T02:58:53.345Z,0.00
2023-05-06T02:59:25.369Z,0.00
2023-05-06T02:59:42.458Z,0.00
2023-05-06T03:00:15.501Z,0.00
2023-05-06T03:00:35.065Z,0.00
2023-05-06T03:01:01.866Z,0.00
2023-05-06T03:01:33.467Z,0.00
2023-05-06T03:02:05.322Z,0.00
2023-05-06T03:02:34.597Z,0.00
2023-05-06T03:02:53.359Z,0.00
2023-05-06T03:03:25.335Z,0.00
2023-05-06T03:03:42.942Z,0.00
2023-05-06T03:04:13.358Z,0.00
2023-05-06T03:04:35.113Z,0.00
2023-05-06T03:05:03.628Z,0.00
2023-05-06T03:05:33.312Z,0.00
2023-05-06T03:06:05.305Z,0.00
2023-05-06T03:06:34.540Z,0.00
2023-05-06T03:06:54.141Z,0.00
2023-05-06T03:07:25.382Z,0.00
2023-05-06T03:07:42.455Z,0.00
2023-05-06T03:08:13.323Z,0.00
2023-05-06T03:08:35.013Z,0.00
2023-05-06T03:09:01.875Z,0.00
2023-05-06T03:09:33.365Z,0.00
2023-05-06T03:10:05.787Z,0.00
2023-05-06T03:10:34.561Z,0.00
2023-05-06T03:10:53.550Z,0.00
2023-05-06T03:11:25.410Z,0.00
2023-05-06T03:11:42.452Z,0.00
2023-05-06T03:12:13.686Z,0.00
2023-05-06T03:12:35.192Z,0.00
2023-05-06T03:13:01.901Z,0.00
2023-05-06T03:13:33.345Z,0.00
2023-05-06T03:14:05.363Z,0.00
2023-05-06T03:14:34.653Z,0.00
2023-05-06T03:14:53.307Z,0.00
2023-05-06T03:15:25.899Z,0.00
2023-05-06T03:15:42.486Z,0.00
2023-05-06T03:16:13.371Z,0.00
2023-05-06T03:16:35.271Z,0.00
2023-05-06T03:17:01.827Z,0.00
2023-05-06T03:17:33.430Z,0.00
2023-05-06T03:18:05.390Z,0.00
2023-05-06T03:18:34.938Z,0.00
2023-05-06T03:18:53.309Z,0.00
2023-05-06T03:19:25.338Z,0.00
2023-05-06T03:19:42.469Z,0.00
2023-05-06T03:20:13.707Z,0.00
2023-05-06T03:20:35.029Z,0.00
2023-05-06T03:21:01.845Z,0.00
2023-05-06T03:21:34.162Z,0.00
2023-05-06T03:22:05.338Z,0.00
2023-05-06T03:22:34.860Z,0.00
2023-05-06T03:22:53.336Z,0.00
2023-05-06T03:23:25.340Z,0.00
2023-05-06T03:23:42.438Z,0.00
2023-05-06T03:24:13.344Z,0.00
2023-05-06T03:24:35.681Z,0.00
2023-05-06T03:25:03.657Z,0.00
2023-05-06T03:25:33.360Z,0.00
2023-05-06T03:26:05.332Z,0.00
2023-05-06T03:26:34.548Z,0.00
2023-05-06T03:26:53.294Z,0.00
2023-05-06T03:27:25.335Z,0.00
2023-05-06T03:27:43.338Z,0.00
2023-05-06T03:28:13.357Z,0.00
2023-05-06T03:28:35.139Z,0.00
2023-05-06T03:29:01.769Z,0.00
2023-05-06T03:29:33.317Z,0.00
2023-05-06T03:30:07.526Z,0.00
2023-05-06T03:30:34.578Z,0.00
2023-05-06T03:30:54.585Z,0.00
2023-05-06T03:31:25.361Z,0.00
2023-05-06T03:31:42.535Z,0.00
2023-05-06T03:32:13.316Z,0.00
2023-05-06T03:32:35.452Z,0.00
2023-05-06T03:33:03.388Z,0.00
2023-05-06T03:33:33.370Z,0.00
2023-05-06T03:34:06.162Z,0.00
2023-05-06T03:34:34.537Z,0.00
2023-05-06T03:34:53.311Z,0.00
2023-05-06T03:35:25.664Z,0.00
2023-05-06T03:35:42.440Z,0.00
2023-05-06T03:36:13.314Z,0.00
2023-05-06T03:36:35.575Z,0.00
2023-05-06T03:37:01.792Z,0.00
2023-05-06T03:37:33.843Z,0.00
2023-05-06T03:38:05.306Z,0.00
2023-05-06T03:38:34.550Z,0.00
2023-05-06T03:38:53.326Z,0.00
2023-05-06T03:39:25.408Z,0.00
2023-05-06T03:39:42.490Z,0.00
2023-05-06T03:40:13.555Z,0.00
2023-05-06T03:40:35.022Z,0.00
2023-05-06T03:41:02.862Z,0.00
2023-05-06T03:41:33.363Z,0.00
2023-05-06T03:42:06.520Z,0.00
2023-05-06T03:42:34.538Z,0.00
2023-05-06T03:42:53.301Z,0.00
2023-05-06T03:43:25.383Z,0.00
2023-05-06T03:43:43.028Z,0.00
2023-05-06T03:44:13.314Z,0.00
2023-05-06T03:44:35.016Z,0.00
2023-05-06T03:45:03.936Z,0.00
2023-05-06T03:45:33.351Z,0.00
2023-05-06T03:46:06.995Z,0.00
2023-05-06T03:46:34.712Z,0.00
2023-05-06T03:46:54.095Z,0.00
2023-05-06T03:47:25.418Z,0.00
2023-05-06T03:47:42.535Z,0.00
2023-05-06T03:48:13.354Z,0.00
2023-05-06T03:48:35.062Z,0.00
2023-05-06T03:49:01.775Z,0.00
2023-05-06T03:49:33.358Z,0.00
2023-05-06T03:50:06.621Z,0.36
2023-05-06T03:50:34.596Z,0.00
2023-05-06T03:50:53.545Z,0.00
2023-05-06T03:51:25.941Z,0.00
2023-05-06T03:51:42.458Z,0.00
2023-05-06T03:52:13.362Z,0.36
2023-05-06T03:52:35.084Z,0.00
2023-05-06T03:53:01.816Z,0.00
2023-05-06T03:53:34.122Z,0.85
2023-05-06T03:54:05.359Z,0.36
2023-05-06T03:54:34.626Z,0.85
2023-05-06T03:54:53.355Z,0.00
2023-05-06T03:55:25.714Z,0.85
2023-05-06T03:55:42.652Z,0.85
2023-05-06T03:56:13.296Z,0.36
2023-05-06T03:56:35.082Z,0.85
2023-05-06T03:57:01.923Z,1.22
2023-05-06T03:57:33.408Z,1.22
2023-05-06T03:58:05.474Z,1.71
2023-05-06T03:58:34.670Z,1.71
2023-05-06T03:58:53.396Z,1.71
2023-05-06T03:59:25.430Z,2.08
2023-05-06T03:59:43.023Z,2.08
2023-05-06T04:00:15.545Z,1.71
2023-05-06T04:00:35.216Z,2.08
2023-05-06T04:01:01.966Z,2.57
2023-05-06T04:01:33.531Z,2.57
2023-05-06T04:02:04.966Z,2.94
2023-05-06T04:02:34.327Z,3.43
2023-05-06T04:02:52.956Z,3.43
2023-05-06T04:03:24.939Z,3.79
2023-05-06T04:03:42.222Z,2.94
2023-05-06T04:04:12.918Z,3.79
2023-05-06T04:04:34.604Z,4.28
2023-05-06T04:05:01.237Z,4.77
2023-05-06T04:05:32.865Z,3.79
2023-05-06T04:06:05.562Z,4.28
2023-05-06T04:06:34.739Z,5.63
2023-05-06T04:06:54.246Z,4.77
2023-05-06T04:07:26.859Z,4.77
2023-05-06T04:07:42.983Z,4.77
2023-05-06T04:08:13.525Z,5.14
2023-05-06T04:08:35.117Z,5.99
2023-05-06T04:09:01.410Z,5.63
2023-05-06T04:09:34.031Z,5.99
2023-05-06T04:10:05.874Z,5.63
2023-05-06T04:10:34.646Z,5.99
2023-05-06T04:10:53.645Z,5.63
2023-05-06T04:11:25.473Z,5.63
2023-05-06T04:11:43.108Z,5.99
2023-05-06T04:12:13.565Z,5.99
2023-05-06T04:12:35.204Z,6.85
2023-05-06T04:13:01.436Z,6.85
2023-05-06T04:13:33.909Z,6.85
2023-05-06T04:14:05.484Z,7.70
2023-05-06T04:14:34.626Z,6.48
2023-05-06T04:14:53.390Z,7.34
2023-05-06T04:15:25.970Z,7.70
2023-05-06T04:15:43.058Z,8.19
2023-05-06T04:16:13.569Z,8.56
2023-05-06T04:16:35.232Z,8.56
2023-05-06T04:17:01.463Z,8.19
2023-05-06T04:17:33.502Z,9.05
2023-05-06T04:18:05.485Z,9.05
2023-05-06T04:18:34.677Z,9.54
2023-05-06T04:18:53.417Z,9.91
2023-05-06T04:19:25.397Z,9.54
2023-05-06T04:19:43.023Z,9.05
2023-05-06T04:20:13.814Z,9.54
2023-05-06T04:20:35.665Z,9.05
2023-05-06T04:21:01.390Z,10.77
2023-05-06T04:21:34.392Z,11.25
2023-05-06T04:22:05.448Z,10.77
2023-05-06T04:22:35.356Z,10.77
2023-05-06T04:22:53.381Z,10.39
2023-05-06T04:23:25.405Z,11.25
2023-05-06T04:23:43.053Z,11.62
2023-05-06T04:24:13.586Z,11.62
2023-05-06T04:24:36.164Z,11.25
2023-05-06T04:25:03.243Z,12.11
2023-05-06T04:25:33.389Z,11.62
2023-05-06T04:26:05.433Z,12.48
2023-05-06T04:26:34.629Z,12.11
2023-05-06T04:26:53.397Z,12.48
2023-05-06T04:27:25.382Z,12.48
2023-05-06T04:27:43.567Z,12.48
2023-05-06T04:28:13.637Z,12.48
2023-05-06T04:28:35.171Z,12.97
2023-05-06T04:29:01.475Z,13.82
2023-05-06T04:29:33.393Z,13.33
2023-05-06T04:30:07.587Z,13.33
2023-05-06T04:30:34.893Z,13.82
2023-05-06T04:30:54.466Z,14.31
2023-05-06T04:31:25.650Z,13.82
2023-05-06T04:31:43.202Z,13.82
2023-05-06T04:32:13.593Z,13.82
2023-05-06T04:32:35.197Z,14.31
2023-05-06T04:33:02.878Z,14.31
2023-05-06T04:33:33.408Z,14.31
2023-05-06T04:34:06.213Z,14.68
2023-05-06T04:34:35.047Z,14.68
2023-05-06T04:34:53.764Z,15.17
2023-05-06T04:35:25.725Z,15.53
2023-05-06T04:35:43.047Z,16.02
2023-05-06T04:36:13.671Z,15.17
2023-05-06T04:36:35.164Z,15.53
2023-05-06T04:37:01.448Z,15.17
2023-05-06T04:37:33.456Z,15.53
2023-05-06T04:38:05.471Z,16.39
2023-05-06T04:38:34.602Z,16.02
2023-05-06T04:38:53.398Z,16.39
2023-05-06T04:39:25.385Z,16.39
2023-05-06T04:39:43.071Z,17.25
2023-05-06T04:40:13.957Z,17.25
2023-05-06T04:40:35.143Z,17.25
2023-05-06T04:41:01.396Z,17.25
2023-05-06T04:41:33.415Z,17.25
2023-05-06T04:42:05.413Z,18.11
2023-05-06T04:42:34.678Z,17.25
2023-05-06T04:42:53.445Z,17.73
2023-05-06T04:43:25.491Z,18.60
2023-05-06T04:43:43.688Z,18.60
2023-05-06T04:44:13.576Z,18.60
2023-05-06T04:44:35.719Z,18.60
2023-05-06T04:45:03.523Z,19.45
2023-05-06T04:45:33.556Z,19.08
2023-05-06T04:46:07.023Z,19.45
2023-05-06T04:46:34.669Z,19.45
2023-05-06T04:46:54.341Z,18.60
2023-05-06T04:47:25.468Z,19.08
2023-05-06T04:47:43.083Z,19.45
2023-05-06T04:48:13.620Z,19.45
2023-05-06T04:48:35.512Z,19.94
2023-05-06T04:49:01.380Z,19.45
2023-05-06T04:49:33.403Z,19.94
2023-05-06T04:50:06.606Z,19.94
2023-05-06T04:50:34.662Z,20.31
2023-05-06T04:50:53.699Z,20.80
2023-05-06T04:51:25.406Z,20.31
2023-05-06T04:51:43.374Z,20.80
2023-05-06T04:52:13.656Z,20.31
2023-05-06T04:52:35.130Z,20.31
2023-05-06T04:53:01.428Z,20.80
2023-05-06T04:53:33.462Z,21.65
2023-05-06T04:54:05.422Z,21.16
2023-05-06T04:54:35.255Z,21.65
2023-05-06T04:54:53.456Z,21.16
2023-05-06T04:55:25.756Z,22.51
2023-05-06T04:55:58.575Z,22.02
2023-05-06T04:56:30.278Z,22.51
2023-05-06T04:57:01.385Z,22.51
2023-05-06T04:57:33.437Z,22.87
2023-05-06T04:58:05.412Z,22.87
2023-05-06T04:58:34.641Z,22.87
2023-05-06T04:58:53.480Z,23.36
2023-05-06T04:59:25.474Z,23.36
2023-05-06T04:59:43.363Z,23.36
2023-05-06T05:00:15.706Z,23.85
2023-05-06T05:00:35.811Z,24.22
2023-05-06T05:01:01.444Z,24.71
2023-05-06T05:01:33.471Z,24.71
2023-05-06T05:02:05.498Z,25.07
2023-05-06T05:02:34.850Z,25.07
2023-05-06T05:02:53.418Z,24.22
2023-05-06T05:03:25.640Z,24.22
2023-05-06T05:03:43.023Z,24.71
2023-05-06T05:04:13.673Z,24.71
2023-05-06T05:04:35.729Z,23.85
2023-05-06T05:05:03.162Z,25.07
2023-05-06T05:05:33.411Z,25.07
2023-05-06T05:06:06.724Z,25.94
2023-05-06T05:06:34.649Z,26.42
2023-05-06T05:06:53.439Z,26.79
2023-05-06T05:07:25.415Z,26.79
2023-05-06T05:07:43.011Z,27.65
2023-05-06T05:08:13.664Z,28.14
2023-05-06T05:08:35.198Z,28.14
2023-05-06T05:09:01.419Z,28.63
2023-05-06T05:09:34.195Z,27.65
2023-05-06T05:10:05.987Z,28.99
2023-05-06T05:10:34.603Z,28.99
2023-05-06T05:10:53.653Z,31.19
2023-05-06T05:11:25.443Z,31.56
2023-05-06T05:11:42.891Z,33.39
2023-05-06T05:12:13.657Z,35.97
2023-05-06T05:12:35.749Z,37.68
2023-05-06T05:13:01.428Z,39.02
2023-05-06T05:13:33.402Z,41.59
2023-05-06T05:14:05.422Z,45.02
2023-05-06T05:14:34.599Z,47.22
2023-05-06T05:14:53.444Z,48.07
2023-05-06T05:15:25.964Z,49.42
2023-05-06T05:15:43.618Z,50.28
2023-05-06T05:16:13.742Z,48.93
2023-05-06T05:16:35.586Z,47.71
2023-05-06T05:17:01.472Z,49.42
2023-05-06T05:17:33.460Z,53.34
2023-05-06T05:18:05.665Z,57.25
2023-05-06T05:18:35.152Z,58.48
2023-05-06T05:18:54.034Z,60.19
2023-05-06T05:19:25.378Z,60.19
2023-05-06T05:19:42.985Z,58.48
2023-05-06T05:20:14.037Z,56.27
2023-05-06T05:20:36.068Z,55.05
2023-05-06T05:21:01.384Z,53.34
2023-05-06T05:21:33.420Z,55.90
2023-05-06T05:22:06.226Z,56.27
2023-05-06T05:22:34.604Z,56.27
2023-05-06T05:22:53.433Z,46.36
2023-05-06T05:23:25.567Z,44.65
2023-05-06T05:23:43.000Z,44.16
2023-05-06T05:24:13.727Z,39.02
2023-05-06T05:24:35.378Z,36.82
2023-05-06T05:25:03.943Z,35.48
2023-05-06T05:25:33.452Z,36.33
2023-05-06T05:26:05.663Z,38.17
2023-05-06T05:26:34.783Z,37.68
2023-05-06T05:26:53.375Z,38.17
2023-05-06T05:27:25.436Z,36.82
2023-05-06T05:27:43.341Z,36.33
2023-05-06T05:28:13.673Z,35.97
2023-05-06T05:28:36.277Z,35.48
2023-05-06T05:29:01.430Z,35.48
2023-05-06T05:29:33.403Z,36.33
2023-05-06T05:30:07.762Z,37.68
2023-05-06T05:30:34.629Z,37.19
2023-05-06T05:30:53.858Z,37.19
2023-05-06T05:31:25.467Z,38.17
2023-05-06T05:31:43.604Z,38.17
2023-05-06T05:32:13.791Z,38.53
2023-05-06T05:32:35.388Z,38.17
2023-05-06T05:33:03.027Z,39.02
2023-05-06T05:33:34.180Z,39.88
2023-05-06T05:34:05.383Z,40.24
2023-05-06T05:34:34.608Z,40.73
2023-05-06T05:35:09.980Z,41.96
2023-05-06T05:35:35.330Z,44.16
2023-05-06T05:35:58.623Z,49.79
2023-05-06T05:36:29.445Z,58.48
2023-05-06T05:37:01.694Z,74.14
2023-05-06T05:37:33.385Z,81.48
2023-05-06T05:38:06.210Z,83.68
2023-05-06T05:38:34.605Z,74.14
2023-05-06T05:38:53.453Z,68.87
2023-05-06T05:39:25.425Z,64.10
2023-05-06T05:39:42.990Z,60.19
2023-05-06T05:40:14.136Z,58.11
2023-05-06T05:40:35.141Z,57.25
2023-05-06T05:41:01.443Z,63.73
2023-05-06T05:41:33.855Z,70.71
2023-05-06T05:42:05.358Z,79.76
2023-05-06T05:42:34.588Z,84.04
2023-05-06T05:42:53.341Z,93.22
2023-05-06T05:43:25.398Z,100.56
2023-05-06T05:43:43.023Z,101.05
2023-05-06T05:44:13.988Z,88.45
2023-05-06T05:44:35.549Z,89.79
2023-05-06T05:45:03.470Z,92.36
2023-05-06T05:45:34.302Z,97.50
2023-05-06T05:46:06.892Z,107.04
2023-05-06T05:46:34.962Z,109.24
2023-05-06T05:46:53.452Z,111.82
2023-05-06T05:47:25.827Z,114.87
2023-05-06T05:47:58.815Z,112.30
2023-05-06T05:48:29.359Z,97.50
2023-05-06T05:49:01.440Z,95.42
2023-05-06T05:49:33.421Z,96.27
2023-05-06T05:50:05.850Z,101.05
2023-05-06T05:50:34.621Z,103.13
2023-05-06T05:50:53.645Z,111.82
2023-05-06T05:51:25.473Z,121.36
2023-05-06T05:51:43.079Z,122.70
2023-05-06T05:52:13.974Z,123.56
2023-05-06T05:52:35.890Z,125.76
2023-05-06T05:53:01.512Z,124.90
2023-05-06T05:53:33.520Z,131.39